sensor_id;sensor_type;location;lat;lon;timestamp;P1;durP1;ratioP1;P2;durP2;ratioP2
76788;SDS011;65740;52.464;13.446;2023-06-10T00:00:33;5.33;;;5.00;;
76788;SDS011;65740;52.464;13.446;2023-06-10T00:02:59;5.20;;;4.80;;
76788;SDS011;65740;52.464;13.446;2023-06-10T00:05:24;5.27;;;4.77;;
76788;SDS011;65740;52.464;13.446;2023-06-10T00:07:51;5.33;;;4.70;;
76788;SDS011;65740;52.464;13.446;2023-06-10T00:10:20;5.47;;;4.90;;
76788;SDS011;65740;52.464;13.446;2023-06-10T00:12:45;5.10;;;4.60;;
76788;SDS011;65740;52.464;13.446;2023-06-10T00:15:11;5.80;;;5.40;;
76788;SDS011;65740;52.464;13.446;2023-06-10T00:17:37;4.83;;;4.50;;
76788;SDS011;65740;52.464;13.446;2023-06-10T00:20:05;5.20;;;4.70;;
76788;SDS011;65740;52.464;13.446;2023-06-10T00:22:35;5.97;;;5.37;;
76788;SDS011;65740;52.464;13.446;2023-06-10T00:25:02;4.87;;;4.37;;
76788;SDS011;65740;52.464;13.446;2023-06-10T00:27:29;5.00;;;4.50;;
76788;SDS011;65740;52.464;13.446;2023-06-10T00:30:00;5.30;;;5.00;;
76788;SDS011;65740;52.464;13.446;2023-06-10T00:32:29;5.40;;;4.90;;
76788;SDS011;65740;52.464;13.446;2023-06-10T00:34:55;5.47;;;4.97;;
76788;SDS011;65740;52.464;13.446;2023-06-10T00:37:20;5.90;;;5.40;;
76788;SDS011;65740;52.464;13.446;2023-06-10T00:39:46;6.00;;;5.40;;
76788;SDS011;65740;52.464;13.446;2023-06-10T00:42:11;6.10;;;5.40;;
76788;SDS011;65740;52.464;13.446;2023-06-10T00:44:37;7.23;;;5.70;;
76788;SDS011;65740;52.464;13.446;2023-06-10T00:47:03;5.33;;;4.83;;
76788;SDS011;65740;52.464;13.446;2023-06-10T00:49:28;5.97;;;5.47;;
76788;SDS011;65740;52.464;13.446;2023-06-10T00:51:54;5.80;;;5.13;;
76788;SDS011;65740;52.464;13.446;2023-06-10T00:54:20;5.30;;;4.80;;
76788;SDS011;65740;52.464;13.446;2023-06-10T00:56:47;5.60;;;5.10;;
76788;SDS011;65740;52.464;13.446;2023-06-10T00:59:13;4.37;;;4.07;;
76788;SDS011;65740;52.464;13.446;2023-06-10T01:01:40;5.23;;;4.57;;
76788;SDS011;65740;52.464;13.446;2023-06-10T01:04:08;4.83;;;4.43;;
76788;SDS011;65740;52.464;13.446;2023-06-10T01:09:42;5.20;;;4.80;;
76788;SDS011;65740;52.464;13.446;2023-06-10T01:15:05;5.53;;;4.73;;
76788;SDS011;65740;52.464;13.446;2023-06-10T01:17:32;6.87;;;5.00;;
76788;SDS011;65740;52.464;13.446;2023-06-10T01:19:58;5.23;;;4.83;;
76788;SDS011;65740;52.464;13.446;2023-06-10T01:22:25;6.13;;;5.00;;
76788;SDS011;65740;52.464;13.446;2023-06-10T01:24:53;4.90;;;4.50;;
76788;SDS011;65740;52.464;13.446;2023-06-10T01:27:26;5.50;;;5.00;;
76788;SDS011;65740;52.464;13.446;2023-06-10T01:29:57;5.73;;;4.30;;
76788;SDS011;65740;52.464;13.446;2023-06-10T01:32:34;5.90;;;5.30;;
76788;SDS011;65740;52.464;13.446;2023-06-10T01:35:12;5.47;;;5.00;;
76788;SDS011;65740;52.464;13.446;2023-06-10T01:37:39;5.03;;;4.63;;
76788;SDS011;65740;52.464;13.446;2023-06-10T01:40:06;5.33;;;4.87;;
76788;SDS011;65740;52.464;13.446;2023-06-10T01:42:33;6.57;;;4.43;;
76788;SDS011;65740;52.464;13.446;2023-06-10T01:44:58;5.80;;;5.20;;
76788;SDS011;65740;52.464;13.446;2023-06-10T01:47:24;5.57;;;5.17;;
76788;SDS011;65740;52.464;13.446;2023-06-10T01:49:50;5.57;;;5.03;;
76788;SDS011;65740;52.464;13.446;2023-06-10T01:52:15;6.00;;;4.97;;
76788;SDS011;65740;52.464;13.446;2023-06-10T01:54:41;6.00;;;5.40;;
76788;SDS011;65740;52.464;13.446;2023-06-10T01:57:07;4.83;;;4.47;;
76788;SDS011;65740;52.464;13.446;2023-06-10T01:59:32;5.77;;;4.40;;
76788;SDS011;65740;52.464;13.446;2023-06-10T02:01:58;7.00;;;4.43;;
76788;SDS011;65740;52.464;13.446;2023-06-10T02:04:23;5.40;;;4.90;;
76788;SDS011;65740;52.464;13.446;2023-06-10T02:06:49;5.13;;;4.73;;
76788;SDS011;65740;52.464;13.446;2023-06-10T02:09:15;5.23;;;4.83;;
76788;SDS011;65740;52.464;13.446;2023-06-10T02:11:41;5.10;;;4.70;;
76788;SDS011;65740;52.464;13.446;2023-06-10T02:14:06;5.03;;;4.63;;
76788;SDS011;65740;52.464;13.446;2023-06-10T02:16:32;5.23;;;4.77;;
76788;SDS011;65740;52.464;13.446;2023-06-10T02:18:58;5.20;;;4.70;;
76788;SDS011;65740;52.464;13.446;2023-06-10T02:21:25;5.20;;;4.70;;
76788;SDS011;65740;52.464;13.446;2023-06-10T02:23:51;7.00;;;5.70;;
76788;SDS011;65740;52.464;13.446;2023-06-10T02:26:16;5.37;;;4.97;;
76788;SDS011;65740;52.464;13.446;2023-06-10T02:28:42;6.10;;;5.60;;
76788;SDS011;65740;52.464;13.446;2023-06-10T02:31:08;5.07;;;4.67;;
76788;SDS011;65740;52.464;13.446;2023-06-10T02:33:34;5.70;;;5.20;;
76788;SDS011;65740;52.464;13.446;2023-06-10T02:35:59;5.20;;;4.80;;
76788;SDS011;65740;52.464;13.446;2023-06-10T02:38:25;5.40;;;4.90;;
76788;SDS011;65740;52.464;13.446;2023-06-10T02:40:51;5.93;;;5.37;;
76788;SDS011;65740;52.464;13.446;2023-06-10T02:43:16;6.00;;;5.30;;
76788;SDS011;65740;52.464;13.446;2023-06-10T02:45:42;5.90;;;5.40;;
76788;SDS011;65740;52.464;13.446;2023-06-10T02:48:07;5.03;;;4.63;;
76788;SDS011;65740;52.464;13.446;2023-06-10T02:50:33;5.40;;;5.00;;
76788;SDS011;65740;52.464;13.446;2023-06-10T02:52:59;5.50;;;5.07;;
76788;SDS011;65740;52.464;13.446;2023-06-10T02:55:25;6.93;;;6.03;;
76788;SDS011;65740;52.464;13.446;2023-06-10T02:57:51;5.33;;;4.93;;
76788;SDS011;65740;52.464;13.446;2023-06-10T03:00:19;5.03;;;4.63;;
76788;SDS011;65740;52.464;13.446;2023-06-10T03:02:45;8.60;;;5.77;;
76788;SDS011;65740;52.464;13.446;2023-06-10T03:05:10;5.57;;;5.07;;
76788;SDS011;65740;52.464;13.446;2023-06-10T03:07:38;5.50;;;5.00;;
76788;SDS011;65740;52.464;13.446;2023-06-10T03:10:04;5.20;;;4.80;;
76788;SDS011;65740;52.464;13.446;2023-06-10T03:12:31;6.10;;;5.60;;
76788;SDS011;65740;52.464;13.446;2023-06-10T03:14:56;5.60;;;5.10;;
76788;SDS011;65740;52.464;13.446;2023-06-10T03:17:22;6.33;;;5.50;;
76788;SDS011;65740;52.464;13.446;2023-06-10T03:19:48;5.43;;;5.00;;
76788;SDS011;65740;52.464;13.446;2023-06-10T03:22:14;5.43;;;5.03;;
76788;SDS011;65740;52.464;13.446;2023-06-10T03:24:41;6.10;;;5.60;;
76788;SDS011;65740;52.464;13.446;2023-06-10T03:27:08;6.03;;;5.43;;
76788;SDS011;65740;52.464;13.446;2023-06-10T03:29:35;4.87;;;4.47;;
76788;SDS011;65740;52.464;13.446;2023-06-10T03:32:02;6.10;;;5.50;;
76788;SDS011;65740;52.464;13.446;2023-06-10T03:34:28;5.70;;;5.20;;
76788;SDS011;65740;52.464;13.446;2023-06-10T03:36:54;6.30;;;5.50;;
76788;SDS011;65740;52.464;13.446;2023-06-10T03:39:20;5.20;;;4.80;;
76788;SDS011;65740;52.464;13.446;2023-06-10T03:41:48;5.77;;;5.27;;
76788;SDS011;65740;52.464;13.446;2023-06-10T03:44:14;6.07;;;5.23;;
76788;SDS011;65740;52.464;13.446;2023-06-10T03:46:40;5.83;;;5.33;;
76788;SDS011;65740;52.464;13.446;2023-06-10T03:49:05;5.53;;;5.13;;
76788;SDS011;65740;52.464;13.446;2023-06-10T03:51:31;5.60;;;5.20;;
76788;SDS011;65740;52.464;13.446;2023-06-10T03:53:57;5.03;;;4.60;;
76788;SDS011;65740;52.464;13.446;2023-06-10T03:56:22;6.20;;;5.60;;
76788;SDS011;65740;52.464;13.446;2023-06-10T03:58:48;5.87;;;5.37;;
76788;SDS011;65740;52.464;13.446;2023-06-10T04:01:13;5.87;;;5.37;;
76788;SDS011;65740;52.464;13.446;2023-06-10T04:03:39;6.20;;;5.70;;
76788;SDS011;65740;52.464;13.446;2023-06-10T04:06:06;5.27;;;4.80;;
76788;SDS011;65740;52.464;13.446;2023-06-10T04:08:32;5.70;;;5.30;;
76788;SDS011;65740;52.464;13.446;2023-06-10T04:10:58;6.30;;;5.80;;
76788;SDS011;65740;52.464;13.446;2023-06-10T04:13:24;5.60;;;5.20;;
76788;SDS011;65740;52.464;13.446;2023-06-10T04:15:49;6.30;;;5.80;;
76788;SDS011;65740;52.464;13.446;2023-06-10T04:18:15;6.20;;;5.73;;
76788;SDS011;65740;52.464;13.446;2023-06-10T04:20:41;6.30;;;5.80;;
76788;SDS011;65740;52.464;13.446;2023-06-10T04:23:07;5.93;;;5.43;;
76788;SDS011;65740;52.464;13.446;2023-06-10T04:25:33;6.00;;;5.20;;
76788;SDS011;65740;52.464;13.446;2023-06-10T04:27:58;8.10;;;5.73;;
76788;SDS011;65740;52.464;13.446;2023-06-10T04:30:24;6.60;;;6.00;;
76788;SDS011;65740;52.464;13.446;2023-06-10T04:32:50;5.50;;;5.10;;
76788;SDS011;65740;52.464;13.446;2023-06-10T04:35:15;6.27;;;5.70;;
76788;SDS011;65740;52.464;13.446;2023-06-10T04:37:41;5.97;;;5.37;;
76788;SDS011;65740;52.464;13.446;2023-06-10T04:40:08;5.60;;;5.20;;
76788;SDS011;65740;52.464;13.446;2023-06-10T04:42:34;6.47;;;5.77;;
76788;SDS011;65740;52.464;13.446;2023-06-10T04:45:00;6.40;;;5.63;;
76788;SDS011;65740;52.464;13.446;2023-06-10T04:47:26;5.77;;;5.37;;
76788;SDS011;65740;52.464;13.446;2023-06-10T04:49:52;5.80;;;5.40;;
76788;SDS011;65740;52.464;13.446;2023-06-10T04:52:17;5.50;;;5.00;;
76788;SDS011;65740;52.464;13.446;2023-06-10T04:54:43;6.07;;;5.67;;
76788;SDS011;65740;52.464;13.446;2023-06-10T04:57:09;6.30;;;5.70;;
76788;SDS011;65740;52.464;13.446;2023-06-10T04:59:36;5.97;;;5.47;;
76788;SDS011;65740;52.464;13.446;2023-06-10T05:02:03;5.73;;;5.23;;
76788;SDS011;65740;52.464;13.446;2023-06-10T05:04:29;6.30;;;5.70;;
76788;SDS011;65740;52.464;13.446;2023-06-10T05:06:55;6.10;;;5.57;;
76788;SDS011;65740;52.464;13.446;2023-06-10T05:09:21;6.50;;;5.73;;
76788;SDS011;65740;52.464;13.446;2023-06-10T05:11:46;5.83;;;5.27;;
76788;SDS011;65740;52.464;13.446;2023-06-10T05:14:12;5.27;;;4.87;;
76788;SDS011;65740;52.464;13.446;2023-06-10T05:16:38;5.70;;;5.20;;
76788;SDS011;65740;52.464;13.446;2023-06-10T05:19:04;6.00;;;5.53;;
76788;SDS011;65740;52.464;13.446;2023-06-10T05:21:29;6.30;;;5.80;;
76788;SDS011;65740;52.464;13.446;2023-06-10T05:23:55;6.17;;;5.67;;
76788;SDS011;65740;52.464;13.446;2023-06-10T05:26:21;5.80;;;5.30;;
76788;SDS011;65740;52.464;13.446;2023-06-10T05:28:47;6.07;;;5.57;;
76788;SDS011;65740;52.464;13.446;2023-06-10T05:31:12;6.00;;;5.50;;
76788;SDS011;65740;52.464;13.446;2023-06-10T05:33:38;5.73;;;5.33;;
76788;SDS011;65740;52.464;13.446;2023-06-10T05:36:04;5.50;;;5.10;;
76788;SDS011;65740;52.464;13.446;2023-06-10T05:38:30;6.87;;;6.27;;
76788;SDS011;65740;52.464;13.446;2023-06-10T05:40:56;6.63;;;5.57;;
76788;SDS011;65740;52.464;13.446;2023-06-10T05:43:22;6.20;;;5.70;;
76788;SDS011;65740;52.464;13.446;2023-06-10T05:45:47;6.43;;;5.83;;
76788;SDS011;65740;52.464;13.446;2023-06-10T05:48:13;5.87;;;5.37;;
76788;SDS011;65740;52.464;13.446;2023-06-10T05:50:39;6.23;;;5.73;;
76788;SDS011;65740;52.464;13.446;2023-06-10T05:53:07;6.27;;;5.77;;
76788;SDS011;65740;52.464;13.446;2023-06-10T05:55:39;6.20;;;5.80;;
76788;SDS011;65740;52.464;13.446;2023-06-10T05:58:08;6.30;;;5.77;;
76788;SDS011;65740;52.464;13.446;2023-06-10T06:00:34;6.80;;;6.30;;
76788;SDS011;65740;52.464;13.446;2023-06-10T06:03:00;6.17;;;5.60;;
76788;SDS011;65740;52.464;13.446;2023-06-10T06:05:25;6.23;;;5.73;;
76788;SDS011;65740;52.464;13.446;2023-06-10T06:07:51;6.77;;;6.23;;
76788;SDS011;65740;52.464;13.446;2023-06-10T06:10:17;6.43;;;6.00;;
76788;SDS011;65740;52.464;13.446;2023-06-10T06:12:43;6.37;;;5.87;;
76788;SDS011;65740;52.464;13.446;2023-06-10T06:15:10;6.30;;;5.90;;
76788;SDS011;65740;52.464;13.446;2023-06-10T06:17:36;6.07;;;5.67;;
76788;SDS011;65740;52.464;13.446;2023-06-10T06:20:02;6.70;;;6.20;;
76788;SDS011;65740;52.464;13.446;2023-06-10T06:22:28;6.60;;;6.10;;
76788;SDS011;65740;52.464;13.446;2023-06-10T06:24:54;6.60;;;6.03;;
76788;SDS011;65740;52.464;13.446;2023-06-10T06:27:19;5.87;;;5.47;;
76788;SDS011;65740;52.464;13.446;2023-06-10T06:29:46;6.30;;;5.80;;
76788;SDS011;65740;52.464;13.446;2023-06-10T06:32:11;5.67;;;5.27;;
76788;SDS011;65740;52.464;13.446;2023-06-10T06:34:37;6.43;;;5.93;;
76788;SDS011;65740;52.464;13.446;2023-06-10T06:37:03;6.57;;;6.00;;
76788;SDS011;65740;52.464;13.446;2023-06-10T06:39:28;6.43;;;5.93;;
76788;SDS011;65740;52.464;13.446;2023-06-10T06:41:54;6.20;;;5.60;;
76788;SDS011;65740;52.464;13.446;2023-06-10T06:44:20;6.70;;;6.10;;
76788;SDS011;65740;52.464;13.446;2023-06-10T06:46:45;7.03;;;6.43;;
76788;SDS011;65740;52.464;13.446;2023-06-10T06:49:11;6.90;;;6.40;;
76788;SDS011;65740;52.464;13.446;2023-06-10T06:51:36;5.93;;;5.43;;
76788;SDS011;65740;52.464;13.446;2023-06-10T06:54:02;7.17;;;6.57;;
76788;SDS011;65740;52.464;13.446;2023-06-10T06:56:30;6.80;;;6.30;;
76788;SDS011;65740;52.464;13.446;2023-06-10T06:58:56;6.10;;;5.60;;
76788;SDS011;65740;52.464;13.446;2023-06-10T07:01:21;6.87;;;6.37;;
76788;SDS011;65740;52.464;13.446;2023-06-10T07:03:47;6.70;;;6.23;;
76788;SDS011;65740;52.464;13.446;2023-06-10T07:06:13;6.70;;;6.10;;
76788;SDS011;65740;52.464;13.446;2023-06-10T07:08:38;7.80;;;7.20;;
76788;SDS011;65740;52.464;13.446;2023-06-10T07:11:04;6.87;;;6.37;;
76788;SDS011;65740;52.464;13.446;2023-06-10T07:13:30;6.97;;;6.47;;
76788;SDS011;65740;52.464;13.446;2023-06-10T07:15:55;7.53;;;6.93;;
76788;SDS011;65740;52.464;13.446;2023-06-10T07:18:21;6.70;;;6.10;;
76788;SDS011;65740;52.464;13.446;2023-06-10T07:20:46;6.77;;;6.27;;
76788;SDS011;65740;52.464;13.446;2023-06-10T07:23:12;6.90;;;6.40;;
76788;SDS011;65740;52.464;13.446;2023-06-10T07:25:38;7.00;;;6.53;;
76788;SDS011;65740;52.464;13.446;2023-06-10T07:28:03;7.13;;;6.63;;
76788;SDS011;65740;52.464;13.446;2023-06-10T07:30:29;6.40;;;5.90;;
76788;SDS011;65740;52.464;13.446;2023-06-10T07:32:55;6.50;;;6.00;;
76788;SDS011;65740;52.464;13.446;2023-06-10T07:35:21;7.53;;;6.83;;
76788;SDS011;65740;52.464;13.446;2023-06-10T07:37:46;6.63;;;6.13;;
76788;SDS011;65740;52.464;13.446;2023-06-10T07:40:12;6.73;;;6.27;;
76788;SDS011;65740;52.464;13.446;2023-06-10T07:42:38;6.37;;;5.97;;
76788;SDS011;65740;52.464;13.446;2023-06-10T07:45:04;6.50;;;6.00;;
76788;SDS011;65740;52.464;13.446;2023-06-10T07:47:30;6.57;;;5.97;;
76788;SDS011;65740;52.464;13.446;2023-06-10T07:49:58;6.30;;;5.80;;
76788;SDS011;65740;52.464;13.446;2023-06-10T07:52:24;6.70;;;6.20;;
76788;SDS011;65740;52.464;13.446;2023-06-10T07:54:50;6.60;;;6.10;;
76788;SDS011;65740;52.464;13.446;2023-06-10T07:57:17;6.77;;;6.17;;
76788;SDS011;65740;52.464;13.446;2023-06-10T07:59:43;6.53;;;6.13;;
76788;SDS011;65740;52.464;13.446;2023-06-10T08:02:09;6.70;;;6.10;;
76788;SDS011;65740;52.464;13.446;2023-06-10T08:04:35;7.20;;;6.70;;
76788;SDS011;65740;52.464;13.446;2023-06-10T08:07:01;6.53;;;6.03;;
76788;SDS011;65740;52.464;13.446;2023-06-10T08:09:27;7.17;;;6.67;;
76788;SDS011;65740;52.464;13.446;2023-06-10T08:11:53;7.50;;;6.90;;
76788;SDS011;65740;52.464;13.446;2023-06-10T08:14:18;6.40;;;5.90;;
76788;SDS011;65740;52.464;13.446;2023-06-10T08:16:44;7.17;;;6.57;;
76788;SDS011;65740;52.464;13.446;2023-06-10T08:19:10;8.10;;;6.70;;
76788;SDS011;65740;52.464;13.446;2023-06-10T08:21:36;6.57;;;6.07;;
76788;SDS011;65740;52.464;13.446;2023-06-10T08:24:04;7.67;;;7.07;;
76788;SDS011;65740;52.464;13.446;2023-06-10T08:26:31;6.87;;;6.30;;
76788;SDS011;65740;52.464;13.446;2023-06-10T08:28:56;7.47;;;6.87;;
76788;SDS011;65740;52.464;13.446;2023-06-10T08:31:22;8.03;;;7.43;;
76788;SDS011;65740;52.464;13.446;2023-06-10T08:33:47;7.53;;;6.93;;
76788;SDS011;65740;52.464;13.446;2023-06-10T08:36:13;7.43;;;6.83;;
76788;SDS011;65740;52.464;13.446;2023-06-10T08:38:39;7.90;;;7.27;;
76788;SDS011;65740;52.464;13.446;2023-06-10T08:41:05;7.30;;;6.80;;
76788;SDS011;65740;52.464;13.446;2023-06-10T08:43:42;8.50;;;7.80;;
76788;SDS011;65740;52.464;13.446;2023-06-10T08:46:10;8.20;;;7.60;;
76788;SDS011;65740;52.464;13.446;2023-06-10T08:48:41;8.10;;;7.50;;
76788;SDS011;65740;52.464;13.446;2023-06-10T08:51:09;7.90;;;7.40;;
76788;SDS011;65740;52.464;13.446;2023-06-10T08:53:36;9.40;;;7.90;;
76788;SDS011;65740;52.464;13.446;2023-06-10T08:56:07;8.20;;;7.60;;
76788;SDS011;65740;52.464;13.446;2023-06-10T08:58:34;7.70;;;7.03;;
76788;SDS011;65740;52.464;13.446;2023-06-10T09:01:06;8.37;;;7.77;;
76788;SDS011;65740;52.464;13.446;2023-06-10T09:03:33;8.40;;;7.80;;
76788;SDS011;65740;52.464;13.446;2023-06-10T09:06:03;8.73;;;8.03;;
76788;SDS011;65740;52.464;13.446;2023-06-10T09:08:30;8.53;;;7.73;;
76788;SDS011;65740;52.464;13.446;2023-06-10T09:10:56;8.80;;;8.10;;
76788;SDS011;65740;52.464;13.446;2023-06-10T09:13:22;8.33;;;7.73;;
76788;SDS011;65740;52.464;13.446;2023-06-10T09:15:48;9.17;;;8.30;;
76788;SDS011;65740;52.464;13.446;2023-06-10T09:18:16;8.40;;;7.70;;
76788;SDS011;65740;52.464;13.446;2023-06-10T09:20:42;9.77;;;8.97;;
76788;SDS011;65740;52.464;13.446;2023-06-10T09:23:08;9.60;;;8.70;;
76788;SDS011;65740;52.464;13.446;2023-06-10T09:25:35;9.33;;;8.63;;
76788;SDS011;65740;52.464;13.446;2023-06-10T09:28:02;9.77;;;8.97;;
76788;SDS011;65740;52.464;13.446;2023-06-10T09:30:29;9.97;;;9.00;;
76788;SDS011;65740;52.464;13.446;2023-06-10T09:32:57;9.30;;;8.50;;
76788;SDS011;65740;52.464;13.446;2023-06-10T09:35:25;10.03;;;9.30;;
76788;SDS011;65740;52.464;13.446;2023-06-10T09:37:52;8.57;;;7.87;;
76788;SDS011;65740;52.464;13.446;2023-06-10T09:40:25;9.70;;;9.00;;
76788;SDS011;65740;52.464;13.446;2023-06-10T09:42:58;9.77;;;9.07;;
76788;SDS011;65740;52.464;13.446;2023-06-10T09:45:29;9.37;;;8.67;;
76788;SDS011;65740;52.464;13.446;2023-06-10T09:47:58;9.60;;;8.80;;
76788;SDS011;65740;52.464;13.446;2023-06-10T09:50:24;9.10;;;8.30;;
76788;SDS011;65740;52.464;13.446;2023-06-10T09:52:50;9.30;;;8.50;;
76788;SDS011;65740;52.464;13.446;2023-06-10T09:55:16;10.27;;;9.23;;
76788;SDS011;65740;52.464;13.446;2023-06-10T09:57:42;10.10;;;9.17;;
76788;SDS011;65740;52.464;13.446;2023-06-10T10:00:12;9.90;;;9.13;;
76788;SDS011;65740;52.464;13.446;2023-06-10T10:02:46;10.33;;;9.53;;
76788;SDS011;65740;52.464;13.446;2023-06-10T10:05:16;8.60;;;8.00;;
76788;SDS011;65740;52.464;13.446;2023-06-10T10:07:43;9.60;;;8.73;;
76788;SDS011;65740;52.464;13.446;2023-06-10T10:10:10;9.33;;;8.47;;
76788;SDS011;65740;52.464;13.446;2023-06-10T10:12:38;8.70;;;8.00;;
76788;SDS011;65740;52.464;13.446;2023-06-10T10:15:05;9.00;;;8.30;;
76788;SDS011;65740;52.464;13.446;2023-06-10T10:17:34;9.00;;;8.20;;
76788;SDS011;65740;52.464;13.446;2023-06-10T10:20:22;9.23;;;8.33;;
76788;SDS011;65740;52.464;13.446;2023-06-10T10:22:52;9.13;;;8.27;;
76788;SDS011;65740;52.464;13.446;2023-06-10T10:25:29;8.90;;;8.30;;
76788;SDS011;65740;52.464;13.446;2023-06-10T10:30:57;7.80;;;7.20;;
76788;SDS011;65740;52.464;13.446;2023-06-10T10:33:31;10.10;;;9.40;;
76788;SDS011;65740;52.464;13.446;2023-06-10T10:36:05;8.63;;;8.00;;
76788;SDS011;65740;52.464;13.446;2023-06-10T10:38:32;9.60;;;9.00;;
76788;SDS011;65740;52.464;13.446;2023-06-10T10:40:59;9.43;;;8.73;;
76788;SDS011;65740;52.464;13.446;2023-06-10T10:43:26;10.17;;;9.17;;
76788;SDS011;65740;52.464;13.446;2023-06-10T10:46:00;9.40;;;8.60;;
76788;SDS011;65740;52.464;13.446;2023-06-10T10:48:26;9.67;;;8.97;;
76788;SDS011;65740;52.464;13.446;2023-06-10T10:50:59;10.37;;;9.47;;
76788;SDS011;65740;52.464;13.446;2023-06-10T10:53:25;9.20;;;8.53;;
76788;SDS011;65740;52.464;13.446;2023-06-10T10:56:00;8.93;;;8.23;;
76788;SDS011;65740;52.464;13.446;2023-06-10T10:58:30;9.40;;;8.70;;
76788;SDS011;65740;52.464;13.446;2023-06-10T11:00:57;9.93;;;9.23;;
76788;SDS011;65740;52.464;13.446;2023-06-10T11:03:22;9.47;;;8.77;;
76788;SDS011;65740;52.464;13.446;2023-06-10T11:05:53;8.60;;;7.93;;
76788;SDS011;65740;52.464;13.446;2023-06-10T11:10:57;8.70;;;8.00;;
76788;SDS011;65740;52.464;13.446;2023-06-10T11:13:23;9.57;;;8.90;;
76788;SDS011;65740;52.464;13.446;2023-06-10T11:15:51;8.73;;;8.10;;
76788;SDS011;65740;52.464;13.446;2023-06-10T11:18:23;9.13;;;8.40;;
76788;SDS011;65740;52.464;13.446;2023-06-10T11:31:35;8.50;;;7.90;;
76788;SDS011;65740;52.464;13.446;2023-06-10T11:34:03;9.60;;;8.90;;
76788;SDS011;65740;52.464;13.446;2023-06-10T11:36:31;7.70;;;7.23;;
76788;SDS011;65740;52.464;13.446;2023-06-10T11:38:59;9.23;;;8.60;;
76788;SDS011;65740;52.464;13.446;2023-06-10T11:41:27;8.10;;;7.60;;
76788;SDS011;65740;52.464;13.446;2023-06-10T11:43:54;8.80;;;8.00;;
76788;SDS011;65740;52.464;13.446;2023-06-10T11:46:23;9.13;;;8.43;;
76788;SDS011;65740;52.464;13.446;2023-06-10T11:48:53;7.57;;;7.07;;
76788;SDS011;65740;52.464;13.446;2023-06-10T11:51:26;8.40;;;7.80;;
76788;SDS011;65740;52.464;13.446;2023-06-10T11:53:53;8.90;;;8.33;;
76788;SDS011;65740;52.464;13.446;2023-06-10T11:56:26;8.80;;;8.00;;
76788;SDS011;65740;52.464;13.446;2023-06-10T11:58:56;9.00;;;8.20;;
76788;SDS011;65740;52.464;13.446;2023-06-10T12:01:41;8.97;;;8.37;;
76788;SDS011;65740;52.464;13.446;2023-06-10T12:04:09;8.90;;;8.30;;
76788;SDS011;65740;52.464;13.446;2023-06-10T12:06:44;8.17;;;7.67;;
76788;SDS011;65740;52.464;13.446;2023-06-10T12:09:19;7.23;;;6.73;;
76788;SDS011;65740;52.464;13.446;2023-06-10T12:11:45;8.47;;;7.97;;
76788;SDS011;65740;52.464;13.446;2023-06-10T12:14:13;8.47;;;7.87;;
76788;SDS011;65740;52.464;13.446;2023-06-10T12:16:38;8.50;;;7.80;;
76788;SDS011;65740;52.464;13.446;2023-06-10T12:19:04;8.90;;;8.20;;
76788;SDS011;65740;52.464;13.446;2023-06-10T12:21:32;9.50;;;8.77;;
76788;SDS011;65740;52.464;13.446;2023-06-10T12:24:09;8.13;;;7.63;;
76788;SDS011;65740;52.464;13.446;2023-06-10T12:26:39;8.73;;;8.13;;
76788;SDS011;65740;52.464;13.446;2023-06-10T12:29:19;7.57;;;7.07;;
76788;SDS011;65740;52.464;13.446;2023-06-10T12:32:19;8.63;;;8.13;;
76788;SDS011;65740;52.464;13.446;2023-06-10T12:34:40;8.83;;;8.13;;
76788;SDS011;65740;52.464;13.446;2023-06-10T12:37:06;8.27;;;7.73;;
76788;SDS011;65740;52.464;13.446;2023-06-10T12:39:38;8.87;;;8.27;;
76788;SDS011;65740;52.464;13.446;2023-06-10T12:42:05;9.63;;;9.00;;
76788;SDS011;65740;52.464;13.446;2023-06-10T12:44:34;10.53;;;9.43;;
76788;SDS011;65740;52.464;13.446;2023-06-10T12:47:09;8.50;;;7.90;;
76788;SDS011;65740;52.464;13.446;2023-06-10T12:49:39;9.20;;;8.60;;
76788;SDS011;65740;52.464;13.446;2023-06-10T12:52:05;10.40;;;9.70;;
76788;SDS011;65740;52.464;13.446;2023-06-10T12:54:31;9.30;;;8.70;;
76788;SDS011;65740;52.464;13.446;2023-06-10T12:56:57;8.77;;;8.20;;
76788;SDS011;65740;52.464;13.446;2023-06-10T12:59:23;10.07;;;9.17;;
76788;SDS011;65740;52.464;13.446;2023-06-10T13:01:52;10.20;;;9.27;;
76788;SDS011;65740;52.464;13.446;2023-06-10T13:04:19;8.23;;;7.73;;
76788;SDS011;65740;52.464;13.446;2023-06-10T13:06:45;10.43;;;9.53;;
76788;SDS011;65740;52.464;13.446;2023-06-10T13:09:12;10.10;;;9.33;;
76788;SDS011;65740;52.464;13.446;2023-06-10T13:11:38;11.23;;;10.27;;
76788;SDS011;65740;52.464;13.446;2023-06-10T13:14:05;9.50;;;8.80;;
76788;SDS011;65740;52.464;13.446;2023-06-10T13:16:31;10.13;;;9.43;;
76788;SDS011;65740;52.464;13.446;2023-06-10T13:18:57;10.00;;;9.23;;
76788;SDS011;65740;52.464;13.446;2023-06-10T13:21:23;8.73;;;8.13;;
76788;SDS011;65740;52.464;13.446;2023-06-10T13:23:48;9.77;;;9.07;;
76788;SDS011;65740;52.464;13.446;2023-06-10T13:26:15;10.13;;;9.23;;
76788;SDS011;65740;52.464;13.446;2023-06-10T13:28:43;10.27;;;9.57;;
76788;SDS011;65740;52.464;13.446;2023-06-10T13:31:09;9.50;;;8.90;;
76788;SDS011;65740;52.464;13.446;2023-06-10T13:33:35;10.07;;;8.97;;
76788;SDS011;65740;52.464;13.446;2023-06-10T13:36:01;8.93;;;8.33;;
76788;SDS011;65740;52.464;13.446;2023-06-10T13:38:26;9.70;;;9.00;;
76788;SDS011;65740;52.464;13.446;2023-06-10T13:40:52;9.07;;;8.57;;
76788;SDS011;65740;52.464;13.446;2023-06-10T13:43:18;9.00;;;8.30;;
76788;SDS011;65740;52.464;13.446;2023-06-10T13:45:43;9.37;;;8.77;;
76788;SDS011;65740;52.464;13.446;2023-06-10T13:48:09;9.63;;;8.93;;
76788;SDS011;65740;52.464;13.446;2023-06-10T13:50:34;10.83;;;10.00;;
76788;SDS011;65740;52.464;13.446;2023-06-10T13:53:00;10.50;;;9.70;;
76788;SDS011;65740;52.464;13.446;2023-06-10T13:55:25;9.70;;;9.10;;
76788;SDS011;65740;52.464;13.446;2023-06-10T13:57:51;9.00;;;8.40;;
76788;SDS011;65740;52.464;13.446;2023-06-10T14:00:16;8.07;;;7.57;;
76788;SDS011;65740;52.464;13.446;2023-06-10T14:02:42;9.80;;;9.20;;
76788;SDS011;65740;52.464;13.446;2023-06-10T14:05:08;9.63;;;9.03;;
76788;SDS011;65740;52.464;13.446;2023-06-10T14:07:34;9.23;;;8.53;;
76788;SDS011;65740;52.464;13.446;2023-06-10T14:10:00;9.80;;;9.20;;
76788;SDS011;65740;52.464;13.446;2023-06-10T14:12:25;9.47;;;8.87;;
76788;SDS011;65740;52.464;13.446;2023-06-10T14:14:51;9.83;;;9.13;;
76788;SDS011;65740;52.464;13.446;2023-06-10T14:17:17;10.87;;;10.03;;
76788;SDS011;65740;52.464;13.446;2023-06-10T14:19:42;9.67;;;9.00;;
76788;SDS011;65740;52.464;13.446;2023-06-10T14:22:08;10.40;;;9.60;;
76788;SDS011;65740;52.464;13.446;2023-06-10T14:24:34;9.70;;;9.10;;
76788;SDS011;65740;52.464;13.446;2023-06-10T14:27:01;9.30;;;8.70;;
76788;SDS011;65740;52.464;13.446;2023-06-10T14:29:27;9.70;;;9.00;;
76788;SDS011;65740;52.464;13.446;2023-06-10T14:31:54;9.20;;;8.50;;
76788;SDS011;65740;52.464;13.446;2023-06-10T14:34:20;9.60;;;8.90;;
76788;SDS011;65740;52.464;13.446;2023-06-10T14:36:48;9.97;;;9.37;;
76788;SDS011;65740;52.464;13.446;2023-06-10T14:39:14;9.57;;;8.97;;
76788;SDS011;65740;52.464;13.446;2023-06-10T14:41:40;9.93;;;9.30;;
76788;SDS011;65740;52.464;13.446;2023-06-10T14:44:05;10.40;;;9.70;;
76788;SDS011;65740;52.464;13.446;2023-06-10T14:46:31;10.20;;;9.50;;
76788;SDS011;65740;52.464;13.446;2023-06-10T14:48:56;10.50;;;9.60;;
76788;SDS011;65740;52.464;13.446;2023-06-10T14:51:24;9.80;;;9.17;;
76788;SDS011;65740;52.464;13.446;2023-06-10T14:53:49;8.80;;;8.30;;